< < Back
Terminal Aerodrome Forecast


Current Version              Previous Versions:   1  2  3  4  5  6  7  8  9  

Terminal Aerodrome Forecast

656
FTUS42 KFFC 242100 AAA
TAFMCN
TAF AMD
KMCN 242134Z 2422/2518 VRB03KT P6SM SKC
     FM250100 00000KT P6SM SKC
     FM251700 33005KT P6SM SKC=

Latest METAR

551
SAUS80 KWBC 251100
MTRMCN
METAR KMCN 251053Z AUTO 28003KT 9SM CLR 05/04 A3003 RMK AO2 SLP167
T00500044 TSNO


USA.gov is the U.S. government's official web portal to all federal, state and local government web resources and services.